sensor_id;sensor_type;location;lat;lon;timestamp;P1;durP1;ratioP1;P2;durP2;ratioP2
14373;SDS011;7270;49.004;12.066;2023-08-24T00:02:10;211.80;;;193.33;;
14373;SDS011;7270;49.004;12.066;2023-08-24T00:04:37;218.73;;;198.57;;
14373;SDS011;7270;49.004;12.066;2023-08-24T00:07:03;242.80;;;219.70;;
14373;SDS011;7270;49.004;12.066;2023-08-24T00:09:30;241.33;;;218.20;;
14373;SDS011;7270;49.004;12.066;2023-08-24T00:11:57;245.70;;;220.77;;
14373;SDS011;7270;49.004;12.066;2023-08-24T00:14:24;257.87;;;230.17;;
14373;SDS011;7270;49.004;12.066;2023-08-24T00:16:51;267.53;;;234.57;;
14373;SDS011;7270;49.004;12.066;2023-08-24T00:19:17;276.63;;;242.07;;
14373;SDS011;7270;49.004;12.066;2023-08-24T00:21:44;344.27;;;242.70;;
14373;SDS011;7270;49.004;12.066;2023-08-24T00:24:10;323.30;;;238.23;;
14373;SDS011;7270;49.004;12.066;2023-08-24T00:26:36;390.93;;;239.23;;
14373;SDS011;7270;49.004;12.066;2023-08-24T00:29:02;284.73;;;229.53;;
14373;SDS011;7270;49.004;12.066;2023-08-24T00:31:30;326.53;;;242.77;;
14373;SDS011;7270;49.004;12.066;2023-08-24T00:33:57;323.57;;;239.37;;
14373;SDS011;7270;49.004;12.066;2023-08-24T00:36:24;376.60;;;222.23;;
14373;SDS011;7270;49.004;12.066;2023-08-24T00:38:50;486.43;;;200.80;;
14373;SDS011;7270;49.004;12.066;2023-08-24T00:41:18;301.33;;;235.27;;
14373;SDS011;7270;49.004;12.066;2023-08-24T00:43:46;258.27;;;224.17;;
14373;SDS011;7270;49.004;12.066;2023-08-24T00:46:12;257.73;;;222.10;;
14373;SDS011;7270;49.004;12.066;2023-08-24T00:48:40;268.70;;;225.30;;
14373;SDS011;7270;49.004;12.066;2023-08-24T00:51:06;242.83;;;216.60;;
14373;SDS011;7270;49.004;12.066;2023-08-24T00:53:33;241.00;;;214.07;;
14373;SDS011;7270;49.004;12.066;2023-08-24T00:55:59;238.07;;;207.13;;
14373;SDS011;7270;49.004;12.066;2023-08-24T00:58:26;241.70;;;211.10;;
14373;SDS011;7270;49.004;12.066;2023-08-24T01:00:52;241.87;;;215.83;;
14373;SDS011;7270;49.004;12.066;2023-08-24T01:03:21;250.77;;;214.43;;
14373;SDS011;7270;49.004;12.066;2023-08-24T01:05:49;262.97;;;217.30;;
14373;SDS011;7270;49.004;12.066;2023-08-24T01:08:16;249.07;;;216.17;;
14373;SDS011;7270;49.004;12.066;2023-08-24T01:10:44;238.77;;;212.47;;
14373;SDS011;7270;49.004;12.066;2023-08-24T01:13:13;236.33;;;210.17;;
14373;SDS011;7270;49.004;12.066;2023-08-24T01:15:46;235.97;;;208.43;;
14373;SDS011;7270;49.004;12.066;2023-08-24T01:18:15;237.53;;;209.27;;
14373;SDS011;7270;49.004;12.066;2023-08-24T01:20:44;240.70;;;214.33;;
14373;SDS011;7270;49.004;12.066;2023-08-24T01:23:18;226.10;;;202.87;;
14373;SDS011;7270;49.004;12.066;2023-08-24T01:25:46;218.93;;;197.17;;
14373;SDS011;7270;49.004;12.066;2023-08-24T01:28:16;209.93;;;190.00;;
14373;SDS011;7270;49.004;12.066;2023-08-24T01:30:42;207.63;;;188.03;;
14373;SDS011;7270;49.004;12.066;2023-08-24T01:33:09;222.47;;;200.27;;
14373;SDS011;7270;49.004;12.066;2023-08-24T01:35:37;217.80;;;195.40;;
14373;SDS011;7270;49.004;12.066;2023-08-24T01:38:03;216.53;;;194.67;;
14373;SDS011;7270;49.004;12.066;2023-08-24T01:40:33;213.23;;;190.43;;
14373;SDS011;7270;49.004;12.066;2023-08-24T01:43:03;226.27;;;202.27;;
14373;SDS011;7270;49.004;12.066;2023-08-24T01:45:32;230.20;;;205.07;;
14373;SDS011;7270;49.004;12.066;2023-08-24T01:47:59;274.57;;;221.07;;
14373;SDS011;7270;49.004;12.066;2023-08-24T01:50:26;264.37;;;215.13;;
14373;SDS011;7270;49.004;12.066;2023-08-24T01:52:53;239.07;;;202.33;;
14373;SDS011;7270;49.004;12.066;2023-08-24T01:55:19;240.10;;;207.40;;
14373;SDS011;7270;49.004;12.066;2023-08-24T01:57:46;244.33;;;207.73;;
14373;SDS011;7270;49.004;12.066;2023-08-24T02:00:12;237.40;;;203.90;;
14373;SDS011;7270;49.004;12.066;2023-08-24T02:02:41;235.67;;;205.17;;
14373;SDS011;7270;49.004;12.066;2023-08-24T02:05:08;258.37;;;210.33;;
14373;SDS011;7270;49.004;12.066;2023-08-24T02:07:34;257.20;;;207.60;;
14373;SDS011;7270;49.004;12.066;2023-08-24T02:10:01;285.37;;;206.50;;
14373;SDS011;7270;49.004;12.066;2023-08-24T02:12:27;353.13;;;224.27;;
14373;SDS011;7270;49.004;12.066;2023-08-24T02:14:53;163.73;;;149.53;;
14373;SDS011;7270;49.004;12.066;2023-08-24T02:17:19;169.20;;;154.10;;
14373;SDS011;7270;49.004;12.066;2023-08-24T02:19:47;172.93;;;158.03;;
14373;SDS011;7270;49.004;12.066;2023-08-24T02:22:13;170.33;;;155.80;;
14373;SDS011;7270;49.004;12.066;2023-08-24T02:24:40;196.93;;;177.40;;
14373;SDS011;7270;49.004;12.066;2023-08-24T02:27:06;221.40;;;196.30;;
14373;SDS011;7270;49.004;12.066;2023-08-24T02:29:33;244.50;;;198.67;;
14373;SDS011;7270;49.004;12.066;2023-08-24T02:31:59;254.57;;;205.10;;
14373;SDS011;7270;49.004;12.066;2023-08-24T02:34:26;244.63;;;197.03;;
14373;SDS011;7270;49.004;12.066;2023-08-24T02:36:54;268.20;;;203.87;;
14373;SDS011;7270;49.004;12.066;2023-08-24T02:39:20;275.73;;;203.57;;
14373;SDS011;7270;49.004;12.066;2023-08-24T02:41:46;321.87;;;215.30;;
14373;SDS011;7270;49.004;12.066;2023-08-24T02:44:13;471.63;;;174.10;;
14373;SDS011;7270;49.004;12.066;2023-08-24T02:46:39;474.70;;;175.50;;
14373;SDS011;7270;49.004;12.066;2023-08-24T02:49:07;125.40;;;116.30;;
14373;SDS011;7270;49.004;12.066;2023-08-24T02:51:33;156.43;;;142.90;;
14373;SDS011;7270;49.004;12.066;2023-08-24T02:54:01;174.13;;;157.10;;
14373;SDS011;7270;49.004;12.066;2023-08-24T02:56:27;192.87;;;172.97;;
14373;SDS011;7270;49.004;12.066;2023-08-24T02:58:54;194.83;;;174.20;;
14373;SDS011;7270;49.004;12.066;2023-08-24T03:01:20;226.07;;;186.27;;
14373;SDS011;7270;49.004;12.066;2023-08-24T03:03:46;200.67;;;172.33;;
14373;SDS011;7270;49.004;12.066;2023-08-24T03:06:13;224.30;;;184.17;;
14373;SDS011;7270;49.004;12.066;2023-08-24T03:08:39;202.40;;;176.23;;
14373;SDS011;7270;49.004;12.066;2023-08-24T03:11:07;210.47;;;174.80;;
14373;SDS011;7270;49.004;12.066;2023-08-24T03:13:35;250.83;;;188.50;;
14373;SDS011;7270;49.004;12.066;2023-08-24T03:16:04;248.93;;;188.87;;
14373;SDS011;7270;49.004;12.066;2023-08-24T03:18:31;214.97;;;181.37;;
14373;SDS011;7270;49.004;12.066;2023-08-24T03:20:58;232.97;;;181.37;;
14373;SDS011;7270;49.004;12.066;2023-08-24T03:23:24;220.13;;;179.13;;
14373;SDS011;7270;49.004;12.066;2023-08-24T03:25:50;224.97;;;177.17;;
14373;SDS011;7270;49.004;12.066;2023-08-24T03:28:18;236.60;;;176.90;;
14373;SDS011;7270;49.004;12.066;2023-08-24T03:30:46;255.43;;;177.63;;
14373;SDS011;7270;49.004;12.066;2023-08-24T03:33:13;261.93;;;183.97;;
14373;SDS011;7270;49.004;12.066;2023-08-24T03:35:39;280.57;;;186.27;;
14373;SDS011;7270;49.004;12.066;2023-08-24T03:38:06;268.47;;;188.17;;
14373;SDS011;7270;49.004;12.066;2023-08-24T03:40:32;286.97;;;192.70;;
14373;SDS011;7270;49.004;12.066;2023-08-24T03:42:58;291.77;;;200.37;;
14373;SDS011;7270;49.004;12.066;2023-08-24T03:45:26;314.17;;;196.93;;
14373;SDS011;7270;49.004;12.066;2023-08-24T03:47:54;439.80;;;191.00;;
14373;SDS011;7270;49.004;12.066;2023-08-24T03:50:20;283.10;;;185.97;;
14373;SDS011;7270;49.004;12.066;2023-08-24T03:52:47;257.97;;;182.67;;
14373;SDS011;7270;49.004;12.066;2023-08-24T03:55:14;190.67;;;161.93;;
14373;SDS011;7270;49.004;12.066;2023-08-24T03:57:40;224.83;;;161.97;;
14373;SDS011;7270;49.004;12.066;2023-08-24T04:00:06;245.07;;;161.77;;
14373;SDS011;7270;49.004;12.066;2023-08-24T04:02:37;273.27;;;182.57;;
14373;SDS011;7270;49.004;12.066;2023-08-24T04:05:04;293.30;;;190.17;;
14373;SDS011;7270;49.004;12.066;2023-08-24T04:07:30;262.87;;;159.73;;
14373;SDS011;7270;49.004;12.066;2023-08-24T04:09:58;233.87;;;140.67;;
14373;SDS011;7270;49.004;12.066;2023-08-24T04:12:24;220.70;;;141.30;;
14373;SDS011;7270;49.004;12.066;2023-08-24T04:14:50;237.47;;;186.20;;
14373;SDS011;7270;49.004;12.066;2023-08-24T04:17:17;203.53;;;180.03;;
14373;SDS011;7270;49.004;12.066;2023-08-24T04:19:45;199.80;;;173.80;;
14373;SDS011;7270;49.004;12.066;2023-08-24T04:22:11;246.47;;;185.83;;
14373;SDS011;7270;49.004;12.066;2023-08-24T04:24:37;277.63;;;193.80;;
14373;SDS011;7270;49.004;12.066;2023-08-24T04:27:04;262.10;;;191.00;;
14373;SDS011;7270;49.004;12.066;2023-08-24T04:29:31;233.50;;;184.07;;
14373;SDS011;7270;49.004;12.066;2023-08-24T04:31:57;224.63;;;179.00;;
14373;SDS011;7270;49.004;12.066;2023-08-24T04:34:24;188.00;;;168.27;;
14373;SDS011;7270;49.004;12.066;2023-08-24T04:36:52;181.67;;;163.17;;
14373;SDS011;7270;49.004;12.066;2023-08-24T04:39:19;156.77;;;142.20;;
14373;SDS011;7270;49.004;12.066;2023-08-24T04:41:46;176.83;;;159.10;;
14373;SDS011;7270;49.004;12.066;2023-08-24T04:44:13;169.17;;;152.63;;
14373;SDS011;7270;49.004;12.066;2023-08-24T04:46:40;170.37;;;154.13;;
14373;SDS011;7270;49.004;12.066;2023-08-24T04:49:06;153.80;;;139.93;;
14373;SDS011;7270;49.004;12.066;2023-08-24T04:51:32;160.30;;;146.13;;
14373;SDS011;7270;49.004;12.066;2023-08-24T04:54:00;161.53;;;147.10;;
14373;SDS011;7270;49.004;12.066;2023-08-24T04:56:27;166.83;;;152.03;;
14373;SDS011;7270;49.004;12.066;2023-08-24T04:58:54;157.03;;;143.23;;
14373;SDS011;7270;49.004;12.066;2023-08-24T05:01:21;166.00;;;151.43;;
14373;SDS011;7270;49.004;12.066;2023-08-24T05:03:48;191.90;;;172.67;;
14373;SDS011;7270;49.004;12.066;2023-08-24T05:06:14;147.20;;;135.63;;
14373;SDS011;7270;49.004;12.066;2023-08-24T05:08:40;167.10;;;152.20;;
14373;SDS011;7270;49.004;12.066;2023-08-24T05:11:11;169.87;;;154.90;;
14373;SDS011;7270;49.004;12.066;2023-08-24T05:13:38;164.03;;;149.37;;
14373;SDS011;7270;49.004;12.066;2023-08-24T05:16:05;166.90;;;152.10;;
14373;SDS011;7270;49.004;12.066;2023-08-24T05:18:31;162.10;;;148.13;;
14373;SDS011;7270;49.004;12.066;2023-08-24T05:20:57;156.10;;;143.57;;
14373;SDS011;7270;49.004;12.066;2023-08-24T05:23:24;146.57;;;134.20;;
14373;SDS011;7270;49.004;12.066;2023-08-24T05:25:50;162.70;;;147.90;;
14373;SDS011;7270;49.004;12.066;2023-08-24T05:28:18;164.13;;;149.50;;
14373;SDS011;7270;49.004;12.066;2023-08-24T05:30:44;141.87;;;131.00;;
14373;SDS011;7270;49.004;12.066;2023-08-24T05:33:10;149.67;;;137.37;;
14373;SDS011;7270;49.004;12.066;2023-08-24T05:35:36;163.40;;;149.07;;
14373;SDS011;7270;49.004;12.066;2023-08-24T05:38:03;166.03;;;152.03;;
14373;SDS011;7270;49.004;12.066;2023-08-24T05:40:29;159.50;;;146.70;;
14373;SDS011;7270;49.004;12.066;2023-08-24T05:42:55;165.57;;;151.80;;
14373;SDS011;7270;49.004;12.066;2023-08-24T05:45:23;148.40;;;136.67;;
14373;SDS011;7270;49.004;12.066;2023-08-24T05:47:49;138.57;;;128.43;;
14373;SDS011;7270;49.004;12.066;2023-08-24T05:50:16;129.07;;;120.27;;
14373;SDS011;7270;49.004;12.066;2023-08-24T05:52:42;118.40;;;110.67;;
14373;SDS011;7270;49.004;12.066;2023-08-24T05:55:09;58.13;;;55.13;;
14373;SDS011;7270;49.004;12.066;2023-08-24T05:57:35;41.37;;;39.33;;
14373;SDS011;7270;49.004;12.066;2023-08-24T06:00:02;35.27;;;33.57;;
14373;SDS011;7270;49.004;12.066;2023-08-24T06:02:36;30.73;;;29.23;;
14373;SDS011;7270;49.004;12.066;2023-08-24T06:05:02;33.67;;;32.07;;
14373;SDS011;7270;49.004;12.066;2023-08-24T06:07:30;34.23;;;32.63;;
14373;SDS011;7270;49.004;12.066;2023-08-24T06:09:56;32.10;;;30.60;;
14373;SDS011;7270;49.004;12.066;2023-08-24T06:12:23;31.27;;;29.77;;
14373;SDS011;7270;49.004;12.066;2023-08-24T06:14:49;23.30;;;22.20;;
14373;SDS011;7270;49.004;12.066;2023-08-24T06:17:15;18.27;;;17.43;;
14373;SDS011;7270;49.004;12.066;2023-08-24T06:19:43;13.20;;;12.60;;
14373;SDS011;7270;49.004;12.066;2023-08-24T06:22:09;18.93;;;18.07;;
14373;SDS011;7270;49.004;12.066;2023-08-24T06:24:36;21.00;;;20.00;;
14373;SDS011;7270;49.004;12.066;2023-08-24T06:27:02;21.63;;;20.60;;
14373;SDS011;7270;49.004;12.066;2023-08-24T06:29:28;23.37;;;22.27;;
14373;SDS011;7270;49.004;12.066;2023-08-24T06:31:55;23.47;;;22.37;;
14373;SDS011;7270;49.004;12.066;2023-08-24T06:34:21;27.43;;;26.13;;
14373;SDS011;7270;49.004;12.066;2023-08-24T06:36:50;41.67;;;39.57;;
14373;SDS011;7270;49.004;12.066;2023-08-24T06:39:16;64.57;;;61.00;;
14373;SDS011;7270;49.004;12.066;2023-08-24T06:41:42;46.83;;;44.53;;
14373;SDS011;7270;49.004;12.066;2023-08-24T06:44:09;83.80;;;78.90;;
14373;SDS011;7270;49.004;12.066;2023-08-24T06:46:35;126.33;;;118.47;;
14373;SDS011;7270;49.004;12.066;2023-08-24T06:49:01;207.83;;;191.03;;
14373;SDS011;7270;49.004;12.066;2023-08-24T06:51:28;241.50;;;218.40;;
14373;SDS011;7270;49.004;12.066;2023-08-24T06:53:56;274.73;;;247.10;;
14373;SDS011;7270;49.004;12.066;2023-08-24T06:56:22;382.63;;;271.70;;
14373;SDS011;7270;49.004;12.066;2023-08-24T06:58:48;121.30;;;114.10;;
14373;SDS011;7270;49.004;12.066;2023-08-24T07:01:15;110.67;;;103.70;;
14373;SDS011;7270;49.004;12.066;2023-08-24T07:03:41;113.73;;;106.33;;
14373;SDS011;7270;49.004;12.066;2023-08-24T07:06:07;102.30;;;96.60;;
14373;SDS011;7270;49.004;12.066;2023-08-24T07:08:34;112.47;;;105.93;;
14373;SDS011;7270;49.004;12.066;2023-08-24T07:11:02;117.90;;;111.13;;
14373;SDS011;7270;49.004;12.066;2023-08-24T07:13:28;115.00;;;108.40;;
14373;SDS011;7270;49.004;12.066;2023-08-24T07:15:54;116.87;;;110.27;;
14373;SDS011;7270;49.004;12.066;2023-08-24T07:18:21;119.13;;;112.30;;
14373;SDS011;7270;49.004;12.066;2023-08-24T07:20:48;127.83;;;120.27;;
14373;SDS011;7270;49.004;12.066;2023-08-24T07:23:14;132.17;;;124.23;;
14373;SDS011;7270;49.004;12.066;2023-08-24T07:25:40;186.03;;;174.43;;
14373;SDS011;7270;49.004;12.066;2023-08-24T07:28:08;203.30;;;189.67;;
14373;SDS011;7270;49.004;12.066;2023-08-24T07:30:35;242.90;;;225.40;;
14373;SDS011;7270;49.004;12.066;2023-08-24T07:33:01;328.03;;;296.70;;
14373;SDS011;7270;49.004;12.066;2023-08-24T07:35:29;432.00;;;335.50;;
14373;SDS011;7270;49.004;12.066;2023-08-24T07:37:55;525.20;;;388.27;;
14373;SDS011;7270;49.004;12.066;2023-08-24T07:40:21;528.03;;;348.03;;
14373;SDS011;7270;49.004;12.066;2023-08-24T07:42:49;541.47;;;396.80;;
14373;SDS011;7270;49.004;12.066;2023-08-24T07:45:19;526.23;;;448.03;;
14373;SDS011;7270;49.004;12.066;2023-08-24T07:47:45;565.27;;;453.00;;
14373;SDS011;7270;49.004;12.066;2023-08-24T07:50:12;482.03;;;428.57;;
14373;SDS011;7270;49.004;12.066;2023-08-24T07:52:38;405.77;;;363.77;;
14373;SDS011;7270;49.004;12.066;2023-08-24T07:55:05;453.13;;;407.57;;
14373;SDS011;7270;49.004;12.066;2023-08-24T07:57:32;313.77;;;290.47;;
14373;SDS011;7270;49.004;12.066;2023-08-24T07:59:58;299.93;;;278.90;;
14373;SDS011;7270;49.004;12.066;2023-08-24T08:02:26;342.87;;;317.00;;
14373;SDS011;7270;49.004;12.066;2023-08-24T08:04:55;336.53;;;311.23;;
14373;SDS011;7270;49.004;12.066;2023-08-24T08:07:22;427.63;;;387.43;;
14373;SDS011;7270;49.004;12.066;2023-08-24T08:09:49;556.93;;;475.73;;
14373;SDS011;7270;49.004;12.066;2023-08-24T08:12:15;557.80;;;499.90;;
14373;SDS011;7270;49.004;12.066;2023-08-24T08:14:41;558.73;;;490.00;;
14373;SDS011;7270;49.004;12.066;2023-08-24T08:17:08;555.97;;;495.07;;
14373;SDS011;7270;49.004;12.066;2023-08-24T08:19:35;469.67;;;417.73;;
14373;SDS011;7270;49.004;12.066;2023-08-24T08:22:03;525.30;;;417.17;;
14373;SDS011;7270;49.004;12.066;2023-08-24T08:24:29;496.43;;;399.03;;
14373;SDS011;7270;49.004;12.066;2023-08-24T08:26:55;490.03;;;431.47;;
14373;SDS011;7270;49.004;12.066;2023-08-24T08:29:22;399.00;;;360.27;;
14373;SDS011;7270;49.004;12.066;2023-08-24T08:31:48;505.50;;;448.00;;
14373;SDS011;7270;49.004;12.066;2023-08-24T08:34:15;546.13;;;474.07;;
14373;SDS011;7270;49.004;12.066;2023-08-24T08:36:42;581.20;;;519.63;;
14373;SDS011;7270;49.004;12.066;2023-08-24T08:39:09;568.10;;;507.13;;
14373;SDS011;7270;49.004;12.066;2023-08-24T08:41:38;582.70;;;525.70;;
14373;SDS011;7270;49.004;12.066;2023-08-24T08:44:06;597.17;;;541.70;;
14373;SDS011;7270;49.004;12.066;2023-08-24T08:46:33;563.07;;;508.57;;
14373;SDS011;7270;49.004;12.066;2023-08-24T08:48:59;574.20;;;517.10;;
14373;SDS011;7270;49.004;12.066;2023-08-24T08:51:26;552.97;;;499.27;;
14373;SDS011;7270;49.004;12.066;2023-08-24T08:53:55;623.60;;;564.47;;
14373;SDS011;7270;49.004;12.066;2023-08-24T08:56:22;596.30;;;540.10;;
14373;SDS011;7270;49.004;12.066;2023-08-24T08:58:49;672.33;;;612.67;;
14373;SDS011;7270;49.004;12.066;2023-08-24T09:01:15;681.70;;;624.10;;
14373;SDS011;7270;49.004;12.066;2023-08-24T09:03:42;676.22;;;618.88;;
14373;SDS011;7270;49.004;12.066;2023-08-24T09:06:10;689.28;;;629.20;;
14373;SDS011;7270;49.004;12.066;2023-08-24T09:08:36;691.50;;;632.60;;
14373;SDS011;7270;49.004;12.066;2023-08-24T09:11:05;541.55;;;493.83;;
14373;SDS011;7270;49.004;12.066;2023-08-24T09:13:33;293.42;;;269.65;;
14373;SDS011;7270;49.004;12.066;2023-08-24T09:16:02;179.52;;;164.23;;
14373;SDS011;7270;49.004;12.066;2023-08-24T09:18:33;3.40;;;3.28;;
14373;SDS011;7270;49.004;12.066;2023-08-24T09:21:00;8.00;;;7.45;;
14373;SDS011;7270;49.004;12.066;2023-08-24T09:23:27;201.27;;;186.38;;
14373;SDS011;7270;49.004;12.066;2023-08-24T09:25:54;3.30;;;3.20;;
14373;SDS011;7270;49.004;12.066;2023-08-24T09:28:23;3.70;;;3.50;;
14373;SDS011;7270;49.004;12.066;2023-08-24T09:30:52;4.05;;;3.85;;
14373;SDS011;7270;49.004;12.066;2023-08-24T09:33:18;5.35;;;5.15;;
14373;SDS011;7270;49.004;12.066;2023-08-24T09:35:51;7.05;;;6.75;;
14373;SDS011;7270;49.004;12.066;2023-08-24T09:38:18;6.05;;;5.75;;
14373;SDS011;7270;49.004;12.066;2023-08-24T09:40:45;21.58;;;20.58;;
14373;SDS011;7270;49.004;12.066;2023-08-24T09:43:13;8.93;;;8.52;;
14373;SDS011;7270;49.004;12.066;2023-08-24T09:45:45;13.27;;;12.68;;
14373;SDS011;7270;49.004;12.066;2023-08-24T09:48:13;7.20;;;6.90;;
14373;SDS011;7270;49.004;12.066;2023-08-24T09:50:39;11.20;;;10.70;;
14373;SDS011;7270;49.004;12.066;2023-08-24T09:53:06;21.83;;;20.77;;
14373;SDS011;7270;49.004;12.066;2023-08-24T09:55:36;8.20;;;7.82;;
14373;SDS011;7270;49.004;12.066;2023-08-24T09:58:05;17.83;;;17.00;;
14373;SDS011;7270;49.004;12.066;2023-08-24T10:00:33;10.88;;;10.38;;
14373;SDS011;7270;49.004;12.066;2023-08-24T10:03:00;25.92;;;24.70;;
14373;SDS011;7270;49.004;12.066;2023-08-24T10:05:28;141.07;;;135.05;;
14373;SDS011;7270;49.004;12.066;2023-08-24T10:07:56;69.22;;;66.18;;
14373;SDS011;7270;49.004;12.066;2023-08-24T10:10:23;245.80;;;235.43;;
14373;SDS011;7270;49.004;12.066;2023-08-24T10:12:51;22.63;;;21.58;;
14373;SDS011;7270;49.004;12.066;2023-08-24T10:15:18;428.45;;;407.25;;
14373;SDS011;7270;49.004;12.066;2023-08-24T10:17:47;331.25;;;316.45;;
14373;SDS011;7270;49.004;12.066;2023-08-24T10:20:15;287.40;;;274.15;;
14373;SDS011;7270;49.004;12.066;2023-08-24T10:22:43;569.75;;;537.03;;
14373;SDS011;7270;49.004;12.066;2023-08-24T10:25:10;653.60;;;611.33;;
14373;SDS011;7270;49.004;12.066;2023-08-24T10:27:37;609.08;;;571.03;;
14373;SDS011;7270;49.004;12.066;2023-08-24T10:30:08;85.70;;;81.88;;
14373;SDS011;7270;49.004;12.066;2023-08-24T10:32:35;414.83;;;388.50;;
14373;SDS011;7270;49.004;12.066;2023-08-24T10:35:03;124.63;;;119.05;;
14373;SDS011;7270;49.004;12.066;2023-08-24T10:37:30;167.73;;;160.15;;
14373;SDS011;7270;49.004;12.066;2023-08-24T10:39:59;10.52;;;9.95;;
14373;SDS011;7270;49.004;12.066;2023-08-24T10:42:26;55.88;;;46.55;;
14373;SDS011;7270;49.004;12.066;2023-08-24T10:44:52;9.40;;;8.95;;
14373;SDS011;7270;49.004;12.066;2023-08-24T10:47:19;18.38;;;17.52;;
14373;SDS011;7270;49.004;12.066;2023-08-24T10:49:56;92.38;;;85.35;;
14373;SDS011;7270;49.004;12.066;2023-08-24T10:52:23;4.50;;;4.30;;
14373;SDS011;7270;49.004;12.066;2023-08-24T10:54:52;3.80;;;3.60;;
14373;SDS011;7270;49.004;12.066;2023-08-24T10:57:19;4.38;;;4.18;;
14373;SDS011;7270;49.004;12.066;2023-08-24T10:59:45;4.50;;;4.30;;
14373;SDS011;7270;49.004;12.066;2023-08-24T11:02:23;5.03;;;4.82;;
14373;SDS011;7270;49.004;12.066;2023-08-24T11:05:05;5.60;;;5.30;;
14373;SDS011;7270;49.004;12.066;2023-08-24T11:07:31;5.80;;;5.50;;
14373;SDS011;7270;49.004;12.066;2023-08-24T11:09:59;5.15;;;4.95;;
14373;SDS011;7270;49.004;12.066;2023-08-24T11:15:31;5.03;;;4.82;;
14373;SDS011;7270;49.004;12.066;2023-08-24T11:18:10;4.82;;;4.63;;
14373;SDS011;7270;49.004;12.066;2023-08-24T11:20:37;4.78;;;4.57;;
14373;SDS011;7270;49.004;12.066;2023-08-24T11:23:03;4.63;;;4.43;;
14373;SDS011;7270;49.004;12.066;2023-08-24T11:25:31;4.43;;;4.22;;
14373;SDS011;7270;49.004;12.066;2023-08-24T11:28:01;5.30;;;5.10;;
14373;SDS011;7270;49.004;12.066;2023-08-24T11:30:29;4.63;;;4.43;;
14373;SDS011;7270;49.004;12.066;2023-08-24T11:32:55;4.70;;;4.50;;
14373;SDS011;7270;49.004;12.066;2023-08-24T11:35:21;5.07;;;4.88;;
14373;SDS011;7270;49.004;12.066;2023-08-24T11:37:50;4.45;;;4.25;;
14373;SDS011;7270;49.004;12.066;2023-08-24T11:40:17;4.70;;;4.50;;
14373;SDS011;7270;49.004;12.066;2023-08-24T11:42:45;4.95;;;4.75;;
14373;SDS011;7270;49.004;12.066;2023-08-24T11:45:11;5.88;;;5.57;;
14373;SDS011;7270;49.004;12.066;2023-08-24T11:47:38;5.30;;;5.10;;
14373;SDS011;7270;49.004;12.066;2023-08-24T11:50:05;5.00;;;4.80;;
14373;SDS011;7270;49.004;12.066;2023-08-24T11:52:31;4.70;;;4.50;;
14373;SDS011;7270;49.004;12.066;2023-08-24T11:55:01;4.97;;;4.78;;
14373;SDS011;7270;49.004;12.066;2023-08-24T11:57:27;4.90;;;4.70;;
14373;SDS011;7270;49.004;12.066;2023-08-24T11:59:55;4.65;;;4.45;;
14373;SDS011;7270;49.004;12.066;2023-08-24T12:02:21;4.53;;;4.32;;
14373;SDS011;7270;49.004;12.066;2023-08-24T12:04:48;4.80;;;4.60;;
14373;SDS011;7270;49.004;12.066;2023-08-24T12:07:14;5.43;;;5.22;;
14373;SDS011;7270;49.004;12.066;2023-08-24T12:09:43;4.95;;;4.75;;
14373;SDS011;7270;49.004;12.066;2023-08-24T12:12:12;5.35;;;5.05;;
14373;SDS011;7270;49.004;12.066;2023-08-24T12:14:41;4.78;;;4.57;;
14373;SDS011;7270;49.004;12.066;2023-08-24T12:17:09;4.70;;;4.50;;
14373;SDS011;7270;49.004;12.066;2023-08-24T12:19:35;5.07;;;4.88;;
14373;SDS011;7270;49.004;12.066;2023-08-24T12:22:01;5.00;;;4.80;;
14373;SDS011;7270;49.004;12.066;2023-08-24T12:24:28;5.03;;;4.82;;
14373;SDS011;7270;49.004;12.066;2023-08-24T12:26:57;6.10;;;5.80;;
14373;SDS011;7270;49.004;12.066;2023-08-24T12:29:24;8.13;;;7.72;;
14373;SDS011;7270;49.004;12.066;2023-08-24T12:31:51;18.35;;;17.50;;
14373;SDS011;7270;49.004;12.066;2023-08-24T12:34:18;11.32;;;10.80;;
14373;SDS011;7270;49.004;12.066;2023-08-24T12:36:45;10.73;;;10.23;;
14373;SDS011;7270;49.004;12.066;2023-08-24T12:39:11;12.57;;;11.98;;
14373;SDS011;7270;49.004;12.066;2023-08-24T12:41:38;675.90;;;611.70;;
14373;SDS011;7270;49.004;12.066;2023-08-24T12:44:05;683.33;;;618.53;;
14373;SDS011;7270;49.004;12.066;2023-08-24T12:46:32;673.87;;;609.13;;
14373;SDS011;7270;49.004;12.066;2023-08-24T12:49:00;656.20;;;592.13;;
14373;SDS011;7270;49.004;12.066;2023-08-24T12:51:27;648.40;;;584.33;;
14373;SDS011;7270;49.004;12.066;2023-08-24T12:53:54;634.43;;;582.97;;
14373;SDS011;7270;49.004;12.066;2023-08-24T12:56:20;6.22;;;5.93;;
14373;SDS011;7270;49.004;12.066;2023-08-24T12:58:46;4.50;;;4.30;;
14373;SDS011;7270;49.004;12.066;2023-08-24T13:01:13;4.47;;;4.27;;
14373;SDS011;7270;49.004;12.066;2023-08-24T13:03:39;4.60;;;4.40;;
14373;SDS011;7270;49.004;12.066;2023-08-24T13:06:05;5.00;;;4.80;;
14373;SDS011;7270;49.004;12.066;2023-08-24T13:08:33;6.63;;;6.33;;
14373;SDS011;7270;49.004;12.066;2023-08-24T13:10:59;7.60;;;7.30;;
14373;SDS011;7270;49.004;12.066;2023-08-24T13:13:26;199.93;;;191.23;;
14373;SDS011;7270;49.004;12.066;2023-08-24T13:15:52;187.43;;;179.00;;
14373;SDS011;7270;49.004;12.066;2023-08-24T13:18:18;251.87;;;239.30;;
14373;SDS011;7270;49.004;12.066;2023-08-24T13:20:44;465.13;;;438.03;;
14373;SDS011;7270;49.004;12.066;2023-08-24T13:23:11;334.90;;;317.87;;
14373;SDS011;7270;49.004;12.066;2023-08-24T13:25:40;53.83;;;51.33;;
14373;SDS011;7270;49.004;12.066;2023-08-24T13:28:06;8.37;;;7.97;;
14373;SDS011;7270;49.004;12.066;2023-08-24T13:30:32;11.10;;;10.60;;
14373;SDS011;7270;49.004;12.066;2023-08-24T13:32:59;55.27;;;52.80;;
14373;SDS011;7270;49.004;12.066;2023-08-24T13:35:25;59.30;;;56.60;;
14373;SDS011;7270;49.004;12.066;2023-08-24T13:37:51;38.50;;;36.67;;
14373;SDS011;7270;49.004;12.066;2023-08-24T13:40:18;66.83;;;63.80;;
14373;SDS011;7270;49.004;12.066;2023-08-24T13:42:45;108.13;;;103.33;;
14373;SDS011;7270;49.004;12.066;2023-08-24T13:45:12;242.87;;;231.80;;
14373;SDS011;7270;49.004;12.066;2023-08-24T13:47:38;43.07;;;41.07;;
14373;SDS011;7270;49.004;12.066;2023-08-24T13:50:05;6.77;;;6.47;;
14373;SDS011;7270;49.004;12.066;2023-08-24T13:52:31;7.30;;;7.00;;
14373;SDS011;7270;49.004;12.066;2023-08-24T13:54:58;4.00;;;3.80;;
14373;SDS011;7270;49.004;12.066;2023-08-24T13:57:28;4.87;;;4.67;;
14373;SDS011;7270;49.004;12.066;2023-08-24T13:59:56;5.33;;;5.03;;
14373;SDS011;7270;49.004;12.066;2023-08-24T14:02:22;6.30;;;6.00;;
14373;SDS011;7270;49.004;12.066;2023-08-24T14:04:48;8.70;;;8.30;;
14373;SDS011;7270;49.004;12.066;2023-08-24T14:07:14;6.67;;;6.37;;
14373;SDS011;7270;49.004;12.066;2023-08-24T14:09:40;14.60;;;13.90;;
14373;SDS011;7270;49.004;12.066;2023-08-24T14:12:06;9.63;;;9.23;;